sensor_id;sensor_type;location;lat;lon;timestamp;temperature;humidity
10411;DHT22;5251;52.112;8.606;2023-05-07T00:00:37;16.40;94.80
10411;DHT22;5251;52.112;8.606;2023-05-07T00:03:03;16.30;94.80
10411;DHT22;5251;52.112;8.606;2023-05-07T00:05:28;16.30;94.90
10411;DHT22;5251;52.112;8.606;2023-05-07T00:07:54;16.20;94.90
10411;DHT22;5251;52.112;8.606;2023-05-07T00:10:19;16.30;94.90
10411;DHT22;5251;52.112;8.606;2023-05-07T00:12:45;16.20;94.80
10411;DHT22;5251;52.112;8.606;2023-05-07T00:15:11;16.20;94.90
10411;DHT22;5251;52.112;8.606;2023-05-07T00:17:37;16.20;94.90
10411;DHT22;5251;52.112;8.606;2023-05-07T00:20:03;16.20;95.10
10411;DHT22;5251;52.112;8.606;2023-05-07T00:22:30;16.10;95.10
10411;DHT22;5251;52.112;8.606;2023-05-07T00:24:56;16.10;95.10
10411;DHT22;5251;52.112;8.606;2023-05-07T00:27:22;16.10;95.20
10411;DHT22;5251;52.112;8.606;2023-05-07T00:29:48;16.10;95.30
10411;DHT22;5251;52.112;8.606;2023-05-07T00:32:13;16.10;95.20
10411;DHT22;5251;52.112;8.606;2023-05-07T00:34:39;16.10;95.10
10411;DHT22;5251;52.112;8.606;2023-05-07T00:37:05;16.10;95.10
10411;DHT22;5251;52.112;8.606;2023-05-07T00:39:33;16.00;95.10
10411;DHT22;5251;52.112;8.606;2023-05-07T00:41:58;16.00;95.20
10411;DHT22;5251;52.112;8.606;2023-05-07T00:44:24;16.00;95.20
10411;DHT22;5251;52.112;8.606;2023-05-07T00:46:50;16.00;95.10
10411;DHT22;5251;52.112;8.606;2023-05-07T00:49:16;16.00;95.20
10411;DHT22;5251;52.112;8.606;2023-05-07T00:51:44;15.90;95.10
10411;DHT22;5251;52.112;8.606;2023-05-07T00:54:10;15.90;95.30
10411;DHT22;5251;52.112;8.606;2023-05-07T00:56:36;15.90;95.40
10411;DHT22;5251;52.112;8.606;2023-05-07T00:59:03;15.80;95.30
10411;DHT22;5251;52.112;8.606;2023-05-07T01:01:29;15.80;95.50
10411;DHT22;5251;52.112;8.606;2023-05-07T01:03:55;15.80;95.50
10411;DHT22;5251;52.112;8.606;2023-05-07T01:06:21;15.80;95.60
10411;DHT22;5251;52.112;8.606;2023-05-07T01:08:48;15.80;95.70
10411;DHT22;5251;52.112;8.606;2023-05-07T01:11:16;15.70;95.50
10411;DHT22;5251;52.112;8.606;2023-05-07T01:13:45;15.70;95.50
10411;DHT22;5251;52.112;8.606;2023-05-07T01:16:11;15.70;95.50
10411;DHT22;5251;52.112;8.606;2023-05-07T01:18:36;15.70;95.70
10411;DHT22;5251;52.112;8.606;2023-05-07T01:21:04;15.70;95.80
10411;DHT22;5251;52.112;8.606;2023-05-07T01:23:30;15.60;95.70
10411;DHT22;5251;52.112;8.606;2023-05-07T01:25:56;15.60;95.70
10411;DHT22;5251;52.112;8.606;2023-05-07T01:28:22;15.60;95.70
10411;DHT22;5251;52.112;8.606;2023-05-07T01:31:00;15.60;95.70
10411;DHT22;5251;52.112;8.606;2023-05-07T01:33:31;15.60;95.40
10411;DHT22;5251;52.112;8.606;2023-05-07T01:35:57;15.50;95.70
10411;DHT22;5251;52.112;8.606;2023-05-07T01:38:25;15.60;95.70
10411;DHT22;5251;52.112;8.606;2023-05-07T01:40:51;15.50;95.80
10411;DHT22;5251;52.112;8.606;2023-05-07T01:43:19;15.50;95.90
10411;DHT22;5251;52.112;8.606;2023-05-07T01:45:45;15.50;95.90
10411;DHT22;5251;52.112;8.606;2023-05-07T01:48:12;15.50;95.70
10411;DHT22;5251;52.112;8.606;2023-05-07T01:50:38;15.50;95.70
10411;DHT22;5251;52.112;8.606;2023-05-07T01:53:04;15.50;96.20
10411;DHT22;5251;52.112;8.606;2023-05-07T01:55:29;15.50;96.00
10411;DHT22;5251;52.112;8.606;2023-05-07T01:57:55;15.40;95.80
10411;DHT22;5251;52.112;8.606;2023-05-07T02:00:21;15.40;95.90
10411;DHT22;5251;52.112;8.606;2023-05-07T02:02:47;15.50;95.90
10411;DHT22;5251;52.112;8.606;2023-05-07T02:05:13;15.40;95.70
10411;DHT22;5251;52.112;8.606;2023-05-07T02:07:38;15.40;95.80
10411;DHT22;5251;52.112;8.606;2023-05-07T02:10:04;15.40;95.90
10411;DHT22;5251;52.112;8.606;2023-05-07T02:12:30;15.30;95.90
10411;DHT22;5251;52.112;8.606;2023-05-07T02:14:56;15.30;96.00
10411;DHT22;5251;52.112;8.606;2023-05-07T02:17:21;15.40;96.10
10411;DHT22;5251;52.112;8.606;2023-05-07T02:19:47;15.30;96.00
10411;DHT22;5251;52.112;8.606;2023-05-07T02:22:13;15.30;96.20
10411;DHT22;5251;52.112;8.606;2023-05-07T02:24:38;15.30;96.10
10411;DHT22;5251;52.112;8.606;2023-05-07T02:27:04;15.30;96.20
10411;DHT22;5251;52.112;8.606;2023-05-07T02:29:29;15.20;96.20
10411;DHT22;5251;52.112;8.606;2023-05-07T02:31:55;15.20;96.10
10411;DHT22;5251;52.112;8.606;2023-05-07T02:34:21;15.20;96.20
10411;DHT22;5251;52.112;8.606;2023-05-07T02:36:46;15.20;96.30
10411;DHT22;5251;52.112;8.606;2023-05-07T02:39:12;15.20;96.20
10411;DHT22;5251;52.112;8.606;2023-05-07T02:41:38;15.20;96.40
10411;DHT22;5251;52.112;8.606;2023-05-07T02:44:04;15.20;96.50
10411;DHT22;5251;52.112;8.606;2023-05-07T02:46:29;15.10;96.50
10411;DHT22;5251;52.112;8.606;2023-05-07T02:48:55;15.20;96.50
10411;DHT22;5251;52.112;8.606;2023-05-07T02:51:22;15.20;96.60
10411;DHT22;5251;52.112;8.606;2023-05-07T02:53:47;15.10;96.60
10411;DHT22;5251;52.112;8.606;2023-05-07T02:56:13;15.10;96.40
10411;DHT22;5251;52.112;8.606;2023-05-07T02:58:39;15.10;96.40
10411;DHT22;5251;52.112;8.606;2023-05-07T03:01:05;15.10;96.40
10411;DHT22;5251;52.112;8.606;2023-05-07T03:03:31;15.10;96.20
10411;DHT22;5251;52.112;8.606;2023-05-07T03:05:57;15.10;96.50
10411;DHT22;5251;52.112;8.606;2023-05-07T03:08:24;15.10;96.40
10411;DHT22;5251;52.112;8.606;2023-05-07T03:10:50;15.10;96.40
10411;DHT22;5251;52.112;8.606;2023-05-07T03:15:41;15.10;96.30
10411;DHT22;5251;52.112;8.606;2023-05-07T03:18:07;15.00;96.50
10411;DHT22;5251;52.112;8.606;2023-05-07T03:20:33;15.00;96.30
10411;DHT22;5251;52.112;8.606;2023-05-07T03:22:58;15.00;96.30
10411;DHT22;5251;52.112;8.606;2023-05-07T03:25:24;15.00;96.30
10411;DHT22;5251;52.112;8.606;2023-05-07T03:27:50;15.00;96.40
10411;DHT22;5251;52.112;8.606;2023-05-07T03:30:15;15.00;96.30
10411;DHT22;5251;52.112;8.606;2023-05-07T03:32:41;15.00;96.50
10411;DHT22;5251;52.112;8.606;2023-05-07T03:35:07;15.00;96.60
10411;DHT22;5251;52.112;8.606;2023-05-07T03:37:32;14.90;96.60
10411;DHT22;5251;52.112;8.606;2023-05-07T03:39:58;14.90;96.60
10411;DHT22;5251;52.112;8.606;2023-05-07T03:42:24;15.00;96.70
10411;DHT22;5251;52.112;8.606;2023-05-07T03:44:50;14.90;96.60
10411;DHT22;5251;52.112;8.606;2023-05-07T03:47:15;14.90;96.60
10411;DHT22;5251;52.112;8.606;2023-05-07T03:49:41;14.90;96.50
10411;DHT22;5251;52.112;8.606;2023-05-07T03:52:06;14.90;96.40
10411;DHT22;5251;52.112;8.606;2023-05-07T03:54:32;14.90;96.60
10411;DHT22;5251;52.112;8.606;2023-05-07T03:56:57;14.90;96.60
10411;DHT22;5251;52.112;8.606;2023-05-07T03:59:23;14.90;96.60
10411;DHT22;5251;52.112;8.606;2023-05-07T04:01:49;14.80;96.70
10411;DHT22;5251;52.112;8.606;2023-05-07T04:04:15;14.80;96.80
10411;DHT22;5251;52.112;8.606;2023-05-07T04:06:40;14.80;96.80
10411;DHT22;5251;52.112;8.606;2023-05-07T04:09:06;14.70;96.80
10411;DHT22;5251;52.112;8.606;2023-05-07T04:11:32;14.80;96.90
10411;DHT22;5251;52.112;8.606;2023-05-07T04:13:57;14.70;96.90
10411;DHT22;5251;52.112;8.606;2023-05-07T04:16:23;14.70;96.90
10411;DHT22;5251;52.112;8.606;2023-05-07T04:18:48;14.70;96.90
10411;DHT22;5251;52.112;8.606;2023-05-07T04:21:23;14.70;97.00
10411;DHT22;5251;52.112;8.606;2023-05-07T04:23:49;14.70;97.00
10411;DHT22;5251;52.112;8.606;2023-05-07T04:26:15;14.70;97.10
10411;DHT22;5251;52.112;8.606;2023-05-07T04:28:41;14.70;97.00
10411;DHT22;5251;52.112;8.606;2023-05-07T04:31:06;14.80;97.10
10411;DHT22;5251;52.112;8.606;2023-05-07T04:33:33;14.80;97.00
10411;DHT22;5251;52.112;8.606;2023-05-07T04:36:02;14.80;97.20
10411;DHT22;5251;52.112;8.606;2023-05-07T04:38:29;14.80;97.30
10411;DHT22;5251;52.112;8.606;2023-05-07T04:40:56;14.80;97.30
10411;DHT22;5251;52.112;8.606;2023-05-07T04:43:22;14.90;97.10
10411;DHT22;5251;52.112;8.606;2023-05-07T04:45:50;14.90;97.40
10411;DHT22;5251;52.112;8.606;2023-05-07T04:48:15;14.90;97.30
10411;DHT22;5251;52.112;8.606;2023-05-07T04:50:41;14.90;97.20
10411;DHT22;5251;52.112;8.606;2023-05-07T04:53:07;14.90;97.10
10411;DHT22;5251;52.112;8.606;2023-05-07T04:55:32;14.90;97.10
10411;DHT22;5251;52.112;8.606;2023-05-07T04:57:58;15.00;97.00
10411;DHT22;5251;52.112;8.606;2023-05-07T05:00:25;14.90;96.80
10411;DHT22;5251;52.112;8.606;2023-05-07T05:02:51;15.00;97.10
10411;DHT22;5251;52.112;8.606;2023-05-07T05:05:17;15.00;97.10
10411;DHT22;5251;52.112;8.606;2023-05-07T05:07:42;15.00;97.20
10411;DHT22;5251;52.112;8.606;2023-05-07T05:10:08;15.10;97.10
10411;DHT22;5251;52.112;8.606;2023-05-07T05:12:34;15.10;97.10
10411;DHT22;5251;52.112;8.606;2023-05-07T05:14:59;15.10;96.90
10411;DHT22;5251;52.112;8.606;2023-05-07T05:17:25;15.10;96.80
10411;DHT22;5251;52.112;8.606;2023-05-07T05:19:50;15.10;96.70
10411;DHT22;5251;52.112;8.606;2023-05-07T05:22:16;15.20;96.80
10411;DHT22;5251;52.112;8.606;2023-05-07T05:24:41;15.20;96.80
10411;DHT22;5251;52.112;8.606;2023-05-07T05:27:07;15.20;96.80
10411;DHT22;5251;52.112;8.606;2023-05-07T05:29:33;15.30;96.80
10411;DHT22;5251;52.112;8.606;2023-05-07T05:31:58;15.30;96.70
10411;DHT22;5251;52.112;8.606;2023-05-07T05:34:24;15.30;96.40
10411;DHT22;5251;52.112;8.606;2023-05-07T05:36:49;15.30;96.50
10411;DHT22;5251;52.112;8.606;2023-05-07T05:39:15;15.40;96.70
10411;DHT22;5251;52.112;8.606;2023-05-07T05:41:40;15.40;96.80
10411;DHT22;5251;52.112;8.606;2023-05-07T05:44:06;15.40;96.80
10411;DHT22;5251;52.112;8.606;2023-05-07T05:46:32;15.50;96.80
10411;DHT22;5251;52.112;8.606;2023-05-07T05:48:57;15.50;96.70
10411;DHT22;5251;52.112;8.606;2023-05-07T05:51:23;15.60;96.70
10411;DHT22;5251;52.112;8.606;2023-05-07T05:53:49;15.70;96.60
10411;DHT22;5251;52.112;8.606;2023-05-07T05:56:15;15.70;96.10
10411;DHT22;5251;52.112;8.606;2023-05-07T05:58:41;15.70;96.30
10411;DHT22;5251;52.112;8.606;2023-05-07T06:01:07;15.80;96.40
10411;DHT22;5251;52.112;8.606;2023-05-07T06:03:32;16.00;96.40
10411;DHT22;5251;52.112;8.606;2023-05-07T06:05:58;16.00;96.60
10411;DHT22;5251;52.112;8.606;2023-05-07T06:08:25;16.10;96.70
10411;DHT22;5251;52.112;8.606;2023-05-07T06:10:51;16.20;96.50
10411;DHT22;5251;52.112;8.606;2023-05-07T06:13:16;16.40;95.70
10411;DHT22;5251;52.112;8.606;2023-05-07T06:15:42;16.50;96.00
10411;DHT22;5251;52.112;8.606;2023-05-07T06:18:08;16.60;95.90
10411;DHT22;5251;52.112;8.606;2023-05-07T06:20:33;16.70;95.50
10411;DHT22;5251;52.112;8.606;2023-05-07T06:22:59;16.80;95.00
10411;DHT22;5251;52.112;8.606;2023-05-07T06:25:25;16.90;95.00
10411;DHT22;5251;52.112;8.606;2023-05-07T06:27:50;17.00;94.90
10411;DHT22;5251;52.112;8.606;2023-05-07T06:30:16;17.10;94.70
10411;DHT22;5251;52.112;8.606;2023-05-07T06:32:41;17.10;94.40
10411;DHT22;5251;52.112;8.606;2023-05-07T06:35:07;17.20;94.20
10411;DHT22;5251;52.112;8.606;2023-05-07T06:37:33;17.20;94.10
10411;DHT22;5251;52.112;8.606;2023-05-07T06:39:59;17.30;94.00
10411;DHT22;5251;52.112;8.606;2023-05-07T06:42:24;17.30;93.90
10411;DHT22;5251;52.112;8.606;2023-05-07T06:44:50;17.30;93.40
10411;DHT22;5251;52.112;8.606;2023-05-07T06:47:16;17.40;93.80
10411;DHT22;5251;52.112;8.606;2023-05-07T06:49:41;17.40;93.70
10411;DHT22;5251;52.112;8.606;2023-05-07T06:52:07;17.50;93.70
10411;DHT22;5251;52.112;8.606;2023-05-07T06:54:33;17.50;93.70
10411;DHT22;5251;52.112;8.606;2023-05-07T06:56:58;17.60;93.70
10411;DHT22;5251;52.112;8.606;2023-05-07T06:59:24;17.70;93.30
10411;DHT22;5251;52.112;8.606;2023-05-07T07:01:49;17.80;92.90
10411;DHT22;5251;52.112;8.606;2023-05-07T07:04:15;17.80;92.90
10411;DHT22;5251;52.112;8.606;2023-05-07T07:06:41;17.90;92.60
10411;DHT22;5251;52.112;8.606;2023-05-07T07:09:06;17.90;92.50
10411;DHT22;5251;52.112;8.606;2023-05-07T07:11:32;18.00;92.60
10411;DHT22;5251;52.112;8.606;2023-05-07T07:13:57;18.10;92.50
10411;DHT22;5251;52.112;8.606;2023-05-07T07:16:24;18.10;91.90
10411;DHT22;5251;52.112;8.606;2023-05-07T07:18:49;18.10;91.70
10411;DHT22;5251;52.112;8.606;2023-05-07T07:21:16;18.20;91.60
10411;DHT22;5251;52.112;8.606;2023-05-07T07:23:41;18.20;91.50
10411;DHT22;5251;52.112;8.606;2023-05-07T07:26:07;18.30;91.70
10411;DHT22;5251;52.112;8.606;2023-05-07T07:28:33;18.30;91.70
10411;DHT22;5251;52.112;8.606;2023-05-07T07:30:59;18.40;91.70
10411;DHT22;5251;52.112;8.606;2023-05-07T07:33:24;18.40;91.30
10411;DHT22;5251;52.112;8.606;2023-05-07T07:35:50;18.50;91.20
10411;DHT22;5251;52.112;8.606;2023-05-07T07:38:16;18.50;90.90
10411;DHT22;5251;52.112;8.606;2023-05-07T07:40:41;18.50;90.90
10411;DHT22;5251;52.112;8.606;2023-05-07T07:43:09;18.70;91.30
10411;DHT22;5251;52.112;8.606;2023-05-07T07:45:34;18.70;91.30
10411;DHT22;5251;52.112;8.606;2023-05-07T07:48:00;18.80;90.90
10411;DHT22;5251;52.112;8.606;2023-05-07T07:50:26;18.90;90.80
10411;DHT22;5251;52.112;8.606;2023-05-07T07:52:51;19.00;90.20
10411;DHT22;5251;52.112;8.606;2023-05-07T07:55:19;19.10;90.40
10411;DHT22;5251;52.112;8.606;2023-05-07T07:57:48;19.10;89.60
10411;DHT22;5251;52.112;8.606;2023-05-07T08:00:14;19.10;89.50
10411;DHT22;5251;52.112;8.606;2023-05-07T08:02:40;19.20;89.40
10411;DHT22;5251;52.112;8.606;2023-05-07T08:05:06;19.30;90.00
10411;DHT22;5251;52.112;8.606;2023-05-07T08:07:32;19.30;90.00
10411;DHT22;5251;52.112;8.606;2023-05-07T08:09:58;19.40;90.00
10411;DHT22;5251;52.112;8.606;2023-05-07T08:12:24;19.40;90.00
10411;DHT22;5251;52.112;8.606;2023-05-07T08:14:49;19.50;89.40
10411;DHT22;5251;52.112;8.606;2023-05-07T08:17:15;19.60;89.60
10411;DHT22;5251;52.112;8.606;2023-05-07T08:19:42;19.60;88.40
10411;DHT22;5251;52.112;8.606;2023-05-07T08:22:09;19.70;88.50
10411;DHT22;5251;52.112;8.606;2023-05-07T08:24:34;19.70;87.20
10411;DHT22;5251;52.112;8.606;2023-05-07T08:27:00;19.80;87.20
10411;DHT22;5251;52.112;8.606;2023-05-07T08:29:25;19.90;87.50
10411;DHT22;5251;52.112;8.606;2023-05-07T08:31:51;20.00;87.80
10411;DHT22;5251;52.112;8.606;2023-05-07T08:34:17;20.00;87.40
10411;DHT22;5251;52.112;8.606;2023-05-07T08:36:42;20.10;87.20
10411;DHT22;5251;52.112;8.606;2023-05-07T08:39:08;20.10;86.50
10411;DHT22;5251;52.112;8.606;2023-05-07T08:41:34;20.20;86.10
10411;DHT22;5251;52.112;8.606;2023-05-07T08:44:02;20.30;86.10
10411;DHT22;5251;52.112;8.606;2023-05-07T08:46:31;20.30;85.90
10411;DHT22;5251;52.112;8.606;2023-05-07T08:48:57;20.30;86.50
10411;DHT22;5251;52.112;8.606;2023-05-07T08:51:23;20.30;85.30
10411;DHT22;5251;52.112;8.606;2023-05-07T08:53:49;20.30;84.90
10411;DHT22;5251;52.112;8.606;2023-05-07T08:56:15;20.40;85.10
10411;DHT22;5251;52.112;8.606;2023-05-07T08:58:42;20.30;85.00
10411;DHT22;5251;52.112;8.606;2023-05-07T09:01:16;20.40;84.60
10411;DHT22;5251;52.112;8.606;2023-05-07T09:03:44;20.40;84.50
10411;DHT22;5251;52.112;8.606;2023-05-07T09:06:10;20.40;84.80
10411;DHT22;5251;52.112;8.606;2023-05-07T09:08:36;20.40;84.50
10411;DHT22;5251;52.112;8.606;2023-05-07T09:11:02;20.50;85.70
10411;DHT22;5251;52.112;8.606;2023-05-07T09:13:29;20.50;84.40
10411;DHT22;5251;52.112;8.606;2023-05-07T09:15:55;20.50;84.60
10411;DHT22;5251;52.112;8.606;2023-05-07T09:18:20;20.50;85.60
10411;DHT22;5251;52.112;8.606;2023-05-07T09:20:46;20.50;84.60
10411;DHT22;5251;52.112;8.606;2023-05-07T09:23:12;20.60;85.80
10411;DHT22;5251;52.112;8.606;2023-05-07T09:25:37;20.70;85.60
10411;DHT22;5251;52.112;8.606;2023-05-07T09:28:04;20.70;85.50
10411;DHT22;5251;52.112;8.606;2023-05-07T09:30:34;20.80;84.90
10411;DHT22;5251;52.112;8.606;2023-05-07T09:33:01;20.80;84.00
10411;DHT22;5251;52.112;8.606;2023-05-07T09:35:28;20.80;83.20
10411;DHT22;5251;52.112;8.606;2023-05-07T09:37:57;20.80;84.40
10411;DHT22;5251;52.112;8.606;2023-05-07T09:40:29;20.80;84.30
10411;DHT22;5251;52.112;8.606;2023-05-07T09:42:56;20.80;84.60
10411;DHT22;5251;52.112;8.606;2023-05-07T09:45:26;20.90;84.50
10411;DHT22;5251;52.112;8.606;2023-05-07T09:47:55;20.90;84.10
10411;DHT22;5251;52.112;8.606;2023-05-07T09:50:30;21.00;84.30
10411;DHT22;5251;52.112;8.606;2023-05-07T09:52:57;21.00;85.10
10411;DHT22;5251;52.112;8.606;2023-05-07T09:55:23;21.10;84.60
10411;DHT22;5251;52.112;8.606;2023-05-07T09:57:53;21.20;83.90
10411;DHT22;5251;52.112;8.606;2023-05-07T10:00:20;21.30;84.00
10411;DHT22;5251;52.112;8.606;2023-05-07T10:02:48;21.40;84.20
10411;DHT22;5251;52.112;8.606;2023-05-07T10:05:15;21.40;83.20
10411;DHT22;5251;52.112;8.606;2023-05-07T10:07:41;21.50;83.20
10411;DHT22;5251;52.112;8.606;2023-05-07T10:10:07;21.50;82.70
10411;DHT22;5251;52.112;8.606;2023-05-07T10:12:33;21.60;82.80
10411;DHT22;5251;52.112;8.606;2023-05-07T10:15:06;21.70;83.30
10411;DHT22;5251;52.112;8.606;2023-05-07T10:17:32;21.80;84.00
10411;DHT22;5251;52.112;8.606;2023-05-07T10:19:58;21.90;83.40
10411;DHT22;5251;52.112;8.606;2023-05-07T10:22:26;22.10;82.90
10411;DHT22;5251;52.112;8.606;2023-05-07T10:24:53;22.20;81.60
10411;DHT22;5251;52.112;8.606;2023-05-07T10:27:20;22.30;81.70
10411;DHT22;5251;52.112;8.606;2023-05-07T10:32:49;22.40;80.70
10411;DHT22;5251;52.112;8.606;2023-05-07T10:35:26;22.40;80.00
10411;DHT22;5251;52.112;8.606;2023-05-07T10:37:52;22.40;81.50
10411;DHT22;5251;52.112;8.606;2023-05-07T10:40:20;22.40;81.30
10411;DHT22;5251;52.112;8.606;2023-05-07T10:42:56;22.50;81.90
10411;DHT22;5251;52.112;8.606;2023-05-07T10:45:22;22.50;81.20
10411;DHT22;5251;52.112;8.606;2023-05-07T10:48:16;22.60;80.00
10411;DHT22;5251;52.112;8.606;2023-05-07T10:50:45;22.60;81.40
10411;DHT22;5251;52.112;8.606;2023-05-07T10:55:42;22.70;80.00
10411;DHT22;5251;52.112;8.606;2023-05-07T10:58:23;22.70;80.10
10411;DHT22;5251;52.112;8.606;2023-05-07T11:00:55;22.70;79.80
10411;DHT22;5251;52.112;8.606;2023-05-07T11:03:21;22.80;80.30
10411;DHT22;5251;52.112;8.606;2023-05-07T11:05:47;22.70;79.60
10411;DHT22;5251;52.112;8.606;2023-05-07T11:11:17;22.70;80.40
10411;DHT22;5251;52.112;8.606;2023-05-07T11:13:44;22.60;80.60
10411;DHT22;5251;52.112;8.606;2023-05-07T11:16:17;22.60;79.50
10411;DHT22;5251;52.112;8.606;2023-05-07T11:18:47;22.50;81.50
10411;DHT22;5251;52.112;8.606;2023-05-07T11:21:34;22.50;80.00
10411;DHT22;5251;52.112;8.606;2023-05-07T11:24:01;22.40;81.20
10411;DHT22;5251;52.112;8.606;2023-05-07T11:26:30;22.30;81.20
10411;DHT22;5251;52.112;8.606;2023-05-07T11:28:56;22.20;80.40
10411;DHT22;5251;52.112;8.606;2023-05-07T11:31:27;22.20;80.40
10411;DHT22;5251;52.112;8.606;2023-05-07T11:33:54;22.10;81.00
10411;DHT22;5251;52.112;8.606;2023-05-07T11:36:21;22.10;81.00
10411;DHT22;5251;52.112;8.606;2023-05-07T11:38:47;22.10;80.80
10411;DHT22;5251;52.112;8.606;2023-05-07T11:41:13;22.10;81.20
10411;DHT22;5251;52.112;8.606;2023-05-07T11:43:53;22.10;81.20
10411;DHT22;5251;52.112;8.606;2023-05-07T11:46:20;22.10;81.30
10411;DHT22;5251;52.112;8.606;2023-05-07T11:48:45;22.10;81.10
10411;DHT22;5251;52.112;8.606;2023-05-07T11:51:11;22.10;81.80
10411;DHT22;5251;52.112;8.606;2023-05-07T11:53:40;22.10;80.90
10411;DHT22;5251;52.112;8.606;2023-05-07T11:56:10;22.20;80.40
10411;DHT22;5251;52.112;8.606;2023-05-07T11:58:36;22.20;80.40
10411;DHT22;5251;52.112;8.606;2023-05-07T12:01:02;22.20;80.40
10411;DHT22;5251;52.112;8.606;2023-05-07T12:03:28;22.30;80.50
10411;DHT22;5251;52.112;8.606;2023-05-07T12:05:54;22.30;81.70
10411;DHT22;5251;52.112;8.606;2023-05-07T12:08:21;22.40;81.00
10411;DHT22;5251;52.112;8.606;2023-05-07T12:10:48;22.50;79.80
10411;DHT22;5251;52.112;8.606;2023-05-07T12:13:32;22.60;80.30
10411;DHT22;5251;52.112;8.606;2023-05-07T12:15:58;22.70;78.80
10411;DHT22;5251;52.112;8.606;2023-05-07T12:18:24;22.70;78.30
10411;DHT22;5251;52.112;8.606;2023-05-07T12:20:50;22.80;78.10
10411;DHT22;5251;52.112;8.606;2023-05-07T12:23:16;22.80;79.10
10411;DHT22;5251;52.112;8.606;2023-05-07T12:25:43;22.90;79.90
10411;DHT22;5251;52.112;8.606;2023-05-07T12:28:18;23.00;80.70
10411;DHT22;5251;52.112;8.606;2023-05-07T12:30:46;23.10;79.10
10411;DHT22;5251;52.112;8.606;2023-05-07T12:33:20;23.20;79.40
10411;DHT22;5251;52.112;8.606;2023-05-07T12:35:48;23.40;78.60
10411;DHT22;5251;52.112;8.606;2023-05-07T12:38:15;23.50;78.00
10411;DHT22;5251;52.112;8.606;2023-05-07T12:43:25;23.70;76.50
10411;DHT22;5251;52.112;8.606;2023-05-07T12:45:53;23.90;77.10
10411;DHT22;5251;52.112;8.606;2023-05-07T12:48:20;23.90;76.10
10411;DHT22;5251;52.112;8.606;2023-05-07T12:50:59;24.00;75.50
10411;DHT22;5251;52.112;8.606;2023-05-07T12:53:26;24.10;75.30
10411;DHT22;5251;52.112;8.606;2023-05-07T12:55:54;24.10;74.70
10411;DHT22;5251;52.112;8.606;2023-05-07T12:58:20;24.20;74.80
10411;DHT22;5251;52.112;8.606;2023-05-07T13:00:50;24.30;74.70
10411;DHT22;5251;52.112;8.606;2023-05-07T13:03:29;24.40;75.00
10411;DHT22;5251;52.112;8.606;2023-05-07T13:05:57;24.40;75.20
10411;DHT22;5251;52.112;8.606;2023-05-07T13:08:25;24.50;73.30
10411;DHT22;5251;52.112;8.606;2023-05-07T13:10:51;24.60;75.00
10411;DHT22;5251;52.112;8.606;2023-05-07T13:13:17;24.70;72.90
10411;DHT22;5251;52.112;8.606;2023-05-07T13:15:42;24.80;73.30
10411;DHT22;5251;52.112;8.606;2023-05-07T13:18:08;24.90;72.40
10411;DHT22;5251;52.112;8.606;2023-05-07T13:20:36;24.90;72.70
10411;DHT22;5251;52.112;8.606;2023-05-07T13:23:02;25.00;73.10
10411;DHT22;5251;52.112;8.606;2023-05-07T13:25:30;25.10;72.10
10411;DHT22;5251;52.112;8.606;2023-05-07T13:27:57;25.10;71.00
10411;DHT22;5251;52.112;8.606;2023-05-07T13:30:22;25.20;70.90
10411;DHT22;5251;52.112;8.606;2023-05-07T13:32:48;25.20;71.10
10411;DHT22;5251;52.112;8.606;2023-05-07T13:35:14;25.20;69.80
10411;DHT22;5251;52.112;8.606;2023-05-07T13:37:39;25.10;69.70
10411;DHT22;5251;52.112;8.606;2023-05-07T13:40:06;25.10;70.00
10411;DHT22;5251;52.112;8.606;2023-05-07T13:42:31;25.10;69.00
10411;DHT22;5251;52.112;8.606;2023-05-07T13:44:57;25.20;69.20
10411;DHT22;5251;52.112;8.606;2023-05-07T13:47:23;25.20;69.80
10411;DHT22;5251;52.112;8.606;2023-05-07T13:49:48;25.20;69.50
10411;DHT22;5251;52.112;8.606;2023-05-07T13:52:15;25.20;71.10
10411;DHT22;5251;52.112;8.606;2023-05-07T13:54:41;25.20;68.40
10411;DHT22;5251;52.112;8.606;2023-05-07T13:57:07;25.30;69.60
10411;DHT22;5251;52.112;8.606;2023-05-07T13:59:33;25.30;68.00
10411;DHT22;5251;52.112;8.606;2023-05-07T14:01:59;25.20;68.70
10411;DHT22;5251;52.112;8.606;2023-05-07T14:04:24;25.10;69.00
10411;DHT22;5251;52.112;8.606;2023-05-07T14:06:50;25.00;67.70
10411;DHT22;5251;52.112;8.606;2023-05-07T14:09:16;24.90;68.30
10411;DHT22;5251;52.112;8.606;2023-05-07T14:11:42;24.90;68.50
10411;DHT22;5251;52.112;8.606;2023-05-07T14:14:07;24.80;68.30
10411;DHT22;5251;52.112;8.606;2023-05-07T14:16:36;24.60;69.20
10411;DHT22;5251;52.112;8.606;2023-05-07T14:19:01;24.60;69.60
10411;DHT22;5251;52.112;8.606;2023-05-07T14:21:27;24.50;68.80
10411;DHT22;5251;52.112;8.606;2023-05-07T14:23:52;24.40;70.30
10411;DHT22;5251;52.112;8.606;2023-05-07T14:26:18;24.30;70.60
10411;DHT22;5251;52.112;8.606;2023-05-07T14:28:44;24.20;70.50
10411;DHT22;5251;52.112;8.606;2023-05-07T14:31:12;24.10;70.00
10411;DHT22;5251;52.112;8.606;2023-05-07T14:33:37;24.10;70.00
10411;DHT22;5251;52.112;8.606;2023-05-07T14:36:03;24.00;70.50
10411;DHT22;5251;52.112;8.606;2023-05-07T14:38:29;23.90;70.50
10411;DHT22;5251;52.112;8.606;2023-05-07T14:40:55;23.90;70.20
10411;DHT22;5251;52.112;8.606;2023-05-07T14:43:21;23.80;70.90
10411;DHT22;5251;52.112;8.606;2023-05-07T14:45:47;23.70;71.40
10411;DHT22;5251;52.112;8.606;2023-05-07T14:48:12;23.60;71.00
10411;DHT22;5251;52.112;8.606;2023-05-07T14:50:41;23.60;71.30
10411;DHT22;5251;52.112;8.606;2023-05-07T14:53:07;23.50;70.90
10411;DHT22;5251;52.112;8.606;2023-05-07T14:55:32;23.40;70.70
10411;DHT22;5251;52.112;8.606;2023-05-07T14:57:59;23.40;71.30
10411;DHT22;5251;52.112;8.606;2023-05-07T15:00:24;23.40;70.20
10411;DHT22;5251;52.112;8.606;2023-05-07T15:02:50;23.30;71.10
10411;DHT22;5251;52.112;8.606;2023-05-07T15:05:15;23.20;70.00
10411;DHT22;5251;52.112;8.606;2023-05-07T15:07:41;23.20;71.10
10411;DHT22;5251;52.112;8.606;2023-05-07T15:10:07;23.20;71.30
10411;DHT22;5251;52.112;8.606;2023-05-07T15:12:32;23.20;71.10
10411;DHT22;5251;52.112;8.606;2023-05-07T15:14:58;23.10;72.00
10411;DHT22;5251;52.112;8.606;2023-05-07T15:17:24;23.10;72.10
10411;DHT22;5251;52.112;8.606;2023-05-07T15:19:49;23.10;71.60
10411;DHT22;5251;52.112;8.606;2023-05-07T15:22:15;23.10;72.00
10411;DHT22;5251;52.112;8.606;2023-05-07T15:24:40;23.10;72.40
10411;DHT22;5251;52.112;8.606;2023-05-07T15:27:06;23.10;71.00
10411;DHT22;5251;52.112;8.606;2023-05-07T15:29:32;23.10;71.60
10411;DHT22;5251;52.112;8.606;2023-05-07T15:31:58;23.10;71.80
10411;DHT22;5251;52.112;8.606;2023-05-07T15:34:23;23.10;71.60
10411;DHT22;5251;52.112;8.606;2023-05-07T15:36:52;23.00;71.50
10411;DHT22;5251;52.112;8.606;2023-05-07T15:39:18;23.00;70.60
10411;DHT22;5251;52.112;8.606;2023-05-07T15:41:43;23.00;70.90
10411;DHT22;5251;52.112;8.606;2023-05-07T15:44:09;22.90;71.80
10411;DHT22;5251;52.112;8.606;2023-05-07T15:46:35;22.90;72.10
10411;DHT22;5251;52.112;8.606;2023-05-07T15:49:02;22.90;71.80
10411;DHT22;5251;52.112;8.606;2023-05-07T15:51:29;22.90;71.80
10411;DHT22;5251;52.112;8.606;2023-05-07T15:53:56;22.90;72.40